createdAt,value
2023-01-17T00:00:01.613Z,12.55
2023-01-17T00:02:30.997Z,15.73
2023-01-17T00:05:17.040Z,14.20
2023-01-17T00:08:03.390Z,12.90
2023-01-17T00:10:31.199Z,12.32
2023-01-17T00:13:03.585Z,12.40
2023-01-17T00:15:31.936Z,10.52
2023-01-17T00:17:59.588Z,8.52
2023-01-17T00:20:49.912Z,7.57
2023-01-17T00:23:42.841Z,9.45
2023-01-17T00:26:19.289Z,8.45
2023-01-17T00:28:49.012Z,9.70
2023-01-17T00:31:17.619Z,6.72
2023-01-17T00:36:13.179Z,8.17
2023-01-17T00:38:41.242Z,5.90
2023-01-17T00:41:14.638Z,8.25
2023-01-17T00:44:00.527Z,7.28
2023-01-17T00:46:46.698Z,6.70
2023-01-17T00:49:32.875Z,7.68
2023-01-17T00:52:19.955Z,7.40
2023-01-17T00:55:06.088Z,7.25
2023-01-17T00:57:52.184Z,8.35
2023-01-17T01:00:38.362Z,12.93
2023-01-17T01:03:29.815Z,5.35
2023-01-17T01:06:15.922Z,6.30
2023-01-17T01:09:01.697Z,6.63
2023-01-17T01:11:47.501Z,9.52
2023-01-17T01:14:33.359Z,6.15
2023-01-17T01:17:19.372Z,7.13
2023-01-17T01:20:05.255Z,5.68
2023-01-17T01:22:51.386Z,5.30
2023-01-17T01:25:37.428Z,5.93
2023-01-17T01:28:32.557Z,5.65
2023-01-17T01:31:23.641Z,5.55
2023-01-17T01:33:53.179Z,4.70
2023-01-17T01:36:21.453Z,4.93
2023-01-17T01:38:50.288Z,4.32
2023-01-17T01:41:18.321Z,5.78
2023-01-17T01:43:54.343Z,5.32
2023-01-17T01:46:41.264Z,5.13
2023-01-17T01:49:24.788Z,4.57
2023-01-17T01:52:00.622Z,4.10
2023-01-17T01:54:57.327Z,4.45
2023-01-17T01:57:32.049Z,3.70
2023-01-17T02:00:15.767Z,4.40
2023-01-17T02:02:46.803Z,4.22
2023-01-17T02:05:18.028Z,5.00
2023-01-17T02:08:03.473Z,5.00
2023-01-17T02:10:34.956Z,5.10
2023-01-17T02:13:03.681Z,4.55
2023-01-17T02:16:18.873Z,5.75
2023-01-17T02:18:53.967Z,4.28
2023-01-17T02:21:34.186Z,4.22
2023-01-17T02:24:43.698Z,3.70
2023-01-17T02:27:32.326Z,4.72
2023-01-17T02:30:32.832Z,4.97
2023-01-17T02:33:14.889Z,4.07
2023-01-17T02:36:10.185Z,3.10
2023-01-17T02:39:02.849Z,4.00
2023-01-17T02:41:37.205Z,4.10
2023-01-17T02:44:05.265Z,3.63
2023-01-17T02:46:32.739Z,3.45
2023-01-17T02:49:00.598Z,3.80
2023-01-17T02:52:26.590Z,3.78
2023-01-17T02:55:24.473Z,4.40
2023-01-17T02:58:00.973Z,3.00
2023-01-17T03:01:10.248Z,2.40
2023-01-17T03:03:52.031Z,2.95
2023-01-17T03:06:47.990Z,4.43
2023-01-17T03:09:17.908Z,5.75
2023-01-17T03:11:45.976Z,5.32
2023-01-17T03:14:13.321Z,5.10
2023-01-17T03:16:40.968Z,5.03
2023-01-17T03:19:09.877Z,6.80
2023-01-17T03:21:37.346Z,8.88
2023-01-17T03:24:04.942Z,14.52
2023-01-17T03:26:32.263Z,13.20
2023-01-17T03:28:59.614Z,10.02
2023-01-17T03:31:26.944Z,7.78
2023-01-17T03:33:54.332Z,7.38
2023-01-17T03:36:21.721Z,5.78
2023-01-17T03:38:49.041Z,5.07
2023-01-17T03:41:16.584Z,5.07
2023-01-17T03:43:43.891Z,3.95
2023-01-17T03:46:28.628Z,2.92
2023-01-17T03:48:56.003Z,2.90
2023-01-17T03:51:23.687Z,2.15
2023-01-17T03:53:51.986Z,2.30
2023-01-17T03:56:19.861Z,3.30
2023-01-17T03:58:47.246Z,9.02
2023-01-17T04:01:14.808Z,6.28
2023-01-17T04:03:42.334Z,5.60
2023-01-17T04:06:09.697Z,3.17
2023-01-17T04:08:37.139Z,3.55
2023-01-17T04:11:04.689Z,2.85
2023-01-17T04:13:32.027Z,4.88
2023-01-17T04:15:59.762Z,4.45
2023-01-17T04:18:27.709Z,9.98
2023-01-17T04:20:55.060Z,6.32
2023-01-17T04:23:22.491Z,14.35
2023-01-17T04:25:49.803Z,16.13
2023-01-17T04:28:17.176Z,19.85
2023-01-17T04:30:44.562Z,16.55
2023-01-17T04:33:11.930Z,19.77
2023-01-17T04:35:39.520Z,27.30
2023-01-17T04:38:06.891Z,31.90
2023-01-17T04:40:34.245Z,25.33
2023-01-17T04:43:01.686Z,24.90
2023-01-17T04:45:29.067Z,35.85
2023-01-17T04:47:56.346Z,28.08
2023-01-17T04:50:23.818Z,29.35
2023-01-17T04:52:51.170Z,14.57
2023-01-17T04:55:18.846Z,45.17
2023-01-17T04:57:48.021Z,42.47
2023-01-17T05:00:16.218Z,67.28
2023-01-17T05:02:43.621Z,48.53
2023-01-17T05:05:11.218Z,49.78
2023-01-17T05:07:38.689Z,36.00
2023-01-17T05:10:06.648Z,32.60
2023-01-17T05:12:34.023Z,23.38
2023-01-17T05:15:01.928Z,23.67
2023-01-17T05:17:29.273Z,22.65
2023-01-17T05:19:56.629Z,21.25
2023-01-17T05:22:23.920Z,23.40
2023-01-17T05:24:51.253Z,23.63
2023-01-17T05:27:18.556Z,24.17
2023-01-17T05:29:45.960Z,20.38
2023-01-17T05:32:13.434Z,23.45
2023-01-17T05:34:40.795Z,16.92
2023-01-17T05:37:08.161Z,13.23
2023-01-17T05:39:35.508Z,12.82
2023-01-17T05:42:02.866Z,12.98
2023-01-17T05:44:30.269Z,24.65
2023-01-17T05:46:57.629Z,23.88
2023-01-17T05:49:25.043Z,20.25
2023-01-17T05:51:54.787Z,20.05
2023-01-17T05:54:22.276Z,19.23
2023-01-17T05:56:49.629Z,20.92
2023-01-17T05:59:20.549Z,21.15
2023-01-17T06:01:54.352Z,17.10
2023-01-17T06:04:21.761Z,15.98
2023-01-17T06:06:49.075Z,18.30
2023-01-17T06:09:16.450Z,11.18
2023-01-17T06:11:43.893Z,16.38
2023-01-17T06:14:11.216Z,13.57
2023-01-17T06:16:38.579Z,12.38
2023-01-17T06:19:05.911Z,20.83
2023-01-17T06:21:33.325Z,18.67
2023-01-17T06:24:02.226Z,16.40
2023-01-17T06:26:30.568Z,20.10
2023-01-17T06:28:57.936Z,16.15
2023-01-17T06:31:25.328Z,17.25
2023-01-17T06:33:52.732Z,12.82
2023-01-17T06:36:20.046Z,25.15
2023-01-17T06:38:51.368Z,16.67
2023-01-17T06:41:18.717Z,10.00
2023-01-17T06:43:46.003Z,8.73
2023-01-17T06:46:13.346Z,16.02
2023-01-17T06:48:43.686Z,12.35
2023-01-17T06:51:11.193Z,17.30
2023-01-17T06:56:08.913Z,17.05
2023-01-17T06:58:36.583Z,22.13
2023-01-17T07:01:09.330Z,33.90
2023-01-17T07:03:37.085Z,27.70
2023-01-17T07:06:05.904Z,17.77
2023-01-17T07:11:05.091Z,16.13
2023-01-17T07:13:38.247Z,16.38
2023-01-17T07:16:07.712Z,19.42
2023-01-17T07:18:35.573Z,22.20
2023-01-17T07:21:02.975Z,24.08
2023-01-17T07:23:30.331Z,30.70
2023-01-17T07:26:00.319Z,41.00
2023-01-17T07:28:28.659Z,31.60
2023-01-17T07:30:56.277Z,37.85
2023-01-17T07:33:23.711Z,54.97
2023-01-17T07:35:51.382Z,30.83
2023-01-17T07:38:20.242Z,29.93
2023-01-17T07:40:47.614Z,25.70
2023-01-17T07:43:15.170Z,32.38
2023-01-17T07:45:51.725Z,24.17
2023-01-17T07:48:22.331Z,22.98
2023-01-17T07:50:58.057Z,24.52
2023-01-17T07:53:28.813Z,17.20
2023-01-17T07:56:05.141Z,16.45
2023-01-17T07:58:34.405Z,14.73
2023-01-17T08:01:08.882Z,14.68
2023-01-17T08:03:40.029Z,21.55
2023-01-17T08:06:13.804Z,18.23
2023-01-17T08:08:41.392Z,18.70
2023-01-17T08:11:08.769Z,77.85
2023-01-17T08:13:36.141Z,58.67
2023-01-17T08:16:04.068Z,53.30
2023-01-17T08:18:31.558Z,46.63
2023-01-17T08:20:58.936Z,39.33
2023-01-17T08:23:27.264Z,30.35
2023-01-17T08:28:27.665Z,24.83
2023-01-17T08:30:55.136Z,50.20
2023-01-17T08:33:22.604Z,51.90
2023-01-17T08:35:54.350Z,39.60
2023-01-17T08:38:23.772Z,47.35
2023-01-17T08:40:51.182Z,31.67
2023-01-17T08:43:18.647Z,28.17
2023-01-17T08:45:48.341Z,20.87
2023-01-17T08:48:16.001Z,15.35
2023-01-17T08:50:43.360Z,14.53
2023-01-17T08:53:10.921Z,14.15
2023-01-17T08:55:40.965Z,17.38
2023-01-17T08:58:08.662Z,17.50
2023-01-17T09:00:35.992Z,15.80
2023-01-17T09:03:03.394Z,8.07
2023-01-17T09:05:31.155Z,13.77
2023-01-17T09:07:58.511Z,17.77
2023-01-17T09:10:27.096Z,16.55
2023-01-17T09:12:54.426Z,12.30
2023-01-17T09:15:22.039Z,10.93
2023-01-17T09:17:49.324Z,7.30
2023-01-17T09:20:17.496Z,9.33
2023-01-17T09:22:46.127Z,16.02
2023-01-17T09:25:13.589Z,26.88
2023-01-17T09:27:46.303Z,19.35
2023-01-17T09:30:14.515Z,13.80
2023-01-17T09:32:41.857Z,10.30
2023-01-17T09:35:10.099Z,15.10
2023-01-17T09:37:37.492Z,15.90
2023-01-17T09:40:06.223Z,25.15
2023-01-17T09:42:40.960Z,27.85
2023-01-17T09:45:18.987Z,25.50
2023-01-17T09:50:53.208Z,18.45
2023-01-17T09:53:21.479Z,20.08
2023-01-17T09:59:01.669Z,17.55
2023-01-17T10:01:38.163Z,15.35
2023-01-17T10:04:49.061Z,22.13
2023-01-17T10:07:22.354Z,16.15
2023-01-17T10:10:20.530Z,16.27
2023-01-17T10:13:01.507Z,15.40
2023-01-17T10:16:13.198Z,15.50
2023-01-17T10:18:46.473Z,13.38
2023-01-17T10:21:35.753Z,14.18
2023-01-17T10:25:15.972Z,20.10
2023-01-17T10:28:05.405Z,10.68
2023-01-17T10:30:38.972Z,11.50
2023-01-17T10:33:19.928Z,9.45
2023-01-17T10:36:07.621Z,11.95
2023-01-17T10:38:38.644Z,11.80
2023-01-17T10:41:21.557Z,13.13
2023-01-17T10:44:21.125Z,12.38
2023-01-17T10:46:56.036Z,13.20
2023-01-17T10:49:27.078Z,11.85
2023-01-17T10:52:04.198Z,12.45
2023-01-17T10:55:04.970Z,8.95
2023-01-17T10:57:45.265Z,7.38
2023-01-17T11:00:51.308Z,8.93
2023-01-17T11:03:24.417Z,11.05
2023-01-17T11:06:21.468Z,9.85
2023-01-17T11:08:51.928Z,10.80
2023-01-17T11:11:24.599Z,9.68
2023-01-17T11:13:55.291Z,12.02
2023-01-17T11:16:27.712Z,10.25
2023-01-17T11:19:30.620Z,18.60
2023-01-17T11:22:05.630Z,10.05
2023-01-17T11:24:49.369Z,5.75
2023-01-17T11:27:56.834Z,10.35
2023-01-17T11:30:29.342Z,6.70
2023-01-17T11:33:08.781Z,5.57
2023-01-17T11:35:43.911Z,10.07
2023-01-17T11:38:19.474Z,4.88
2023-01-17T11:40:49.581Z,5.75
2023-01-17T11:43:26.360Z,4.57
2023-01-17T11:46:02.887Z,6.22
2023-01-17T11:48:38.928Z,6.22
2023-01-17T11:51:26.731Z,6.13
2023-01-17T11:54:08.337Z,6.30
2023-01-17T11:56:37.352Z,6.25
2023-01-17T11:59:35.237Z,8.40
2023-01-17T12:02:37.170Z,5.88
2023-01-17T12:05:32.463Z,3.88
2023-01-17T12:08:17.631Z,4.13
2023-01-17T12:11:00.279Z,4.68
2023-01-17T12:14:03.282Z,5.57
2023-01-17T12:16:54.011Z,5.03
2023-01-17T12:19:43.620Z,5.60
2023-01-17T12:22:29.911Z,6.20
2023-01-17T12:25:03.140Z,3.42
2023-01-17T12:28:04.236Z,4.35
2023-01-17T12:30:55.248Z,5.82
2023-01-17T12:33:38.744Z,7.03
2023-01-17T12:36:19.224Z,3.80
2023-01-17T12:38:48.607Z,4.68
2023-01-17T12:41:31.441Z,6.63
2023-01-17T12:44:02.291Z,7.90
2023-01-17T12:46:49.397Z,7.82
2023-01-17T12:49:33.423Z,15.07
2023-01-17T12:52:23.682Z,11.90
2023-01-17T12:55:01.244Z,12.25
2023-01-17T12:57:43.911Z,10.70
2023-01-17T13:00:23.072Z,15.88
2023-01-17T13:03:04.539Z,13.48
2023-01-17T13:05:45.943Z,9.23
2023-01-17T13:08:50.451Z,13.73
2023-01-17T13:11:30.259Z,11.65
2023-01-17T13:13:59.807Z,15.75
2023-01-17T13:16:48.256Z,15.07
2023-01-17T13:19:40.877Z,12.00
2023-01-17T13:22:21.822Z,8.32
2023-01-17T13:25:26.831Z,10.63
2023-01-17T13:28:36.056Z,9.85
2023-01-17T13:31:26.782Z,13.13
2023-01-17T13:34:36.135Z,10.93
2023-01-17T13:37:30.713Z,12.02
2023-01-17T13:40:43.597Z,11.20
2023-01-17T13:43:21.819Z,13.88
2023-01-17T13:45:56.584Z,18.88
2023-01-17T13:48:26.684Z,15.40
2023-01-17T13:50:57.474Z,14.38
2023-01-17T13:53:33.994Z,11.40
2023-01-17T13:56:10.164Z,7.30
2023-01-17T13:58:50.397Z,6.55
2023-01-17T14:01:24.142Z,6.53
2023-01-17T14:03:54.757Z,8.27
2023-01-17T14:06:44.797Z,6.30
2023-01-17T14:09:42.430Z,10.57
2023-01-17T14:12:14.233Z,7.57
2023-01-17T14:14:41.778Z,8.40
2023-01-17T14:17:28.182Z,6.57
2023-01-17T14:20:25.594Z,6.32
2023-01-17T14:22:56.024Z,7.28
2023-01-17T14:25:28.703Z,7.70
2023-01-17T14:28:02.574Z,14.52
2023-01-17T14:30:39.577Z,6.40
2023-01-17T14:33:30.015Z,10.07
2023-01-17T14:36:03.268Z,10.73
2023-01-17T14:38:33.547Z,8.48
2023-01-17T14:41:07.564Z,10.52
2023-01-17T14:43:40.763Z,7.85
2023-01-17T14:46:23.031Z,10.13
2023-01-17T14:48:58.605Z,7.72
2023-01-17T14:51:26.179Z,6.75
2023-01-17T14:53:55.854Z,9.57
2023-01-17T14:56:26.099Z,7.18
2023-01-17T14:59:16.908Z,8.98
2023-01-17T15:02:06.347Z,8.30
2023-01-17T15:04:39.345Z,8.10
2023-01-17T15:07:15.816Z,6.38
2023-01-17T15:09:44.714Z,7.57
2023-01-17T15:12:16.685Z,5.68
2023-01-17T15:14:46.647Z,9.85
2023-01-17T15:17:26.192Z,6.68
2023-01-17T15:20:17.203Z,7.45
2023-01-17T15:22:45.197Z,9.30
2023-01-17T15:25:14.262Z,7.10
2023-01-17T15:27:42.884Z,6.50
2023-01-17T15:30:15.607Z,6.20
2023-01-17T15:32:47.895Z,5.00
2023-01-17T15:35:20.252Z,7.97
2023-01-17T15:37:54.245Z,9.82
2023-01-17T15:40:25.540Z,9.32
2023-01-17T15:43:01.049Z,9.68
2023-01-17T15:45:33.334Z,13.38
2023-01-17T15:48:45.730Z,16.10
2023-01-17T15:51:13.662Z,18.83
2023-01-17T15:53:42.973Z,23.45
2023-01-17T15:56:33.260Z,13.43
2023-01-17T15:59:36.289Z,16.15
2023-01-17T16:02:03.917Z,5.45
2023-01-17T16:04:37.264Z,9.90
2023-01-17T16:07:34.194Z,7.88
2023-01-17T16:10:17.670Z,11.52
2023-01-17T16:12:46.686Z,9.35
2023-01-17T16:15:17.560Z,6.32
2023-01-17T16:17:49.957Z,7.10
2023-01-17T16:20:25.397Z,11.50
2023-01-17T16:22:53.078Z,8.48
2023-01-17T16:25:23.433Z,4.78
2023-01-17T16:27:52.473Z,7.22
2023-01-17T16:30:24.188Z,2.78
2023-01-17T16:32:52.213Z,5.70
2023-01-17T16:35:23.272Z,13.23
2023-01-17T16:37:53.117Z,5.85
2023-01-17T16:40:24.177Z,13.23
2023-01-17T16:42:51.959Z,9.00
2023-01-17T16:45:19.530Z,10.90
2023-01-17T16:47:48.124Z,9.57
2023-01-17T16:50:20.317Z,5.75
2023-01-17T16:52:52.367Z,6.82
2023-01-17T16:55:24.276Z,1.05
2023-01-17T16:57:56.396Z,8.32
2023-01-17T17:00:24.705Z,4.68
2023-01-17T17:02:53.604Z,5.13
2023-01-17T17:05:20.991Z,3.00
2023-01-17T17:07:50.864Z,2.70
2023-01-17T17:10:21.940Z,2.83
2023-01-17T17:12:49.350Z,1.90
2023-01-17T17:15:16.718Z,5.15
2023-01-17T17:17:44.095Z,4.97
2023-01-17T17:20:14.743Z,8.45
2023-01-17T17:22:48.881Z,4.82
2023-01-17T17:25:16.741Z,10.07
2023-01-17T17:27:44.091Z,5.45
2023-01-17T17:30:12.728Z,2.00
2023-01-17T17:32:40.148Z,5.03
2023-01-17T17:35:08.107Z,9.27
2023-01-17T17:37:35.517Z,4.93
2023-01-17T17:40:04.481Z,5.43
2023-01-17T17:42:32.014Z,4.50
2023-01-17T17:44:59.383Z,7.60
2023-01-17T17:47:26.829Z,2.50
2023-01-17T17:49:54.112Z,9.25
2023-01-17T17:52:21.404Z,7.82
2023-01-17T17:54:49.275Z,5.43
2023-01-17T17:57:16.567Z,4.68
2023-01-17T17:59:43.881Z,5.60
2023-01-17T18:02:11.885Z,1.30
2023-01-17T18:04:39.248Z,6.18
2023-01-17T18:07:06.611Z,3.60
2023-01-17T18:09:34.059Z,6.00
2023-01-17T18:12:02.841Z,5.72
2023-01-17T18:14:30.243Z,2.53
2023-01-17T18:16:57.593Z,2.83
2023-01-17T18:19:26.503Z,3.08
2023-01-17T18:21:53.983Z,0.88
2023-01-17T18:24:24.073Z,1.53
2023-01-17T18:26:56.841Z,7.53
2023-01-17T18:29:26.939Z,5.18
2023-01-17T18:31:55.060Z,5.30
2023-01-17T18:34:29.038Z,3.08
2023-01-17T18:36:57.343Z,2.80
2023-01-17T18:41:58.005Z,7.93
2023-01-17T18:46:55.188Z,1.08
2023-01-17T18:49:22.664Z,2.47
2023-01-17T18:51:50.960Z,2.85
2023-01-17T18:54:22.128Z,4.45
2023-01-17T18:56:49.635Z,2.45
2023-01-17T18:59:21.440Z,3.65
2023-01-17T19:01:49.804Z,3.40
2023-01-17T19:06:47.917Z,17.02
2023-01-17T19:09:16.721Z,2.60
2023-01-17T19:11:45.130Z,3.20
2023-01-17T19:16:41.887Z,2.85
2023-01-17T19:19:14.272Z,3.13
2023-01-17T19:21:42.183Z,2.83
2023-01-17T19:24:13.024Z,4.20
2023-01-17T19:26:41.821Z,3.90
2023-01-17T19:29:09.312Z,3.10
2023-01-17T19:31:43.649Z,6.60
2023-01-17T19:34:13.896Z,6.95
2023-01-17T19:36:42.447Z,7.28
2023-01-17T19:41:43.733Z,2.30
2023-01-17T19:44:13.771Z,1.38
2023-01-17T19:46:41.874Z,2.00
2023-01-17T19:49:10.550Z,3.25
2023-01-17T19:51:39.655Z,1.75
2023-01-17T19:54:08.274Z,2.28
2023-01-17T19:56:36.035Z,1.80
2023-01-17T19:59:03.740Z,3.53
2023-01-17T20:01:34.033Z,1.38
2023-01-17T20:04:03.465Z,4.78
2023-01-17T20:06:35.637Z,2.72
2023-01-17T20:09:05.277Z,3.63
2023-01-17T20:11:32.989Z,7.60
2023-01-17T20:14:00.681Z,4.68
2023-01-17T20:16:31.003Z,3.90
2023-01-17T20:18:59.525Z,2.75
2023-01-17T20:23:58.886Z,4.55
2023-01-17T20:26:36.359Z,3.63
2023-01-17T20:29:10.566Z,4.70
2023-01-17T20:31:40.662Z,9.15
2023-01-17T20:34:11.529Z,4.70
2023-01-17T20:36:42.084Z,6.90
2023-01-17T20:39:14.271Z,4.70
2023-01-17T20:41:44.832Z,5.47
2023-01-17T20:44:15.541Z,7.05
2023-01-17T20:46:43.681Z,5.13
2023-01-17T20:49:19.369Z,2.55
2023-01-17T20:51:47.575Z,2.10
2023-01-17T20:56:47.509Z,5.00
2023-01-17T20:59:19.179Z,5.57
2023-01-17T21:01:47.049Z,5.28
2023-01-17T21:04:15.169Z,2.83
2023-01-17T21:06:44.184Z,5.35
2023-01-17T21:09:15.077Z,3.25
2023-01-17T21:11:42.903Z,2.95
2023-01-17T21:14:10.314Z,4.32
2023-01-17T21:16:38.138Z,4.68
2023-01-17T21:19:06.097Z,5.22
2023-01-17T21:21:33.491Z,4.82
2023-01-17T21:24:00.971Z,11.55
2023-01-17T21:26:28.976Z,8.37
2023-01-17T21:29:00.117Z,6.47
2023-01-17T21:31:33.508Z,3.65
2023-01-17T21:34:07.189Z,6.30
2023-01-17T21:36:39.133Z,8.43
2023-01-17T21:39:19.100Z,4.63
2023-01-17T21:41:50.669Z,5.13
2023-01-17T21:44:23.374Z,5.93
2023-01-17T21:46:56.391Z,6.60
2023-01-17T21:49:24.556Z,4.75
2023-01-17T21:51:54.919Z,6.68
2023-01-17T21:54:47.413Z,7.32
2023-01-17T21:57:38.919Z,8.85
2023-01-17T22:00:15.801Z,5.53
2023-01-17T22:02:48.168Z,6.40
2023-01-17T22:05:16.907Z,7.78
2023-01-17T22:08:05.070Z,6.80
2023-01-17T22:10:33.181Z,5.32
2023-01-17T22:13:00.704Z,10.60
2023-01-17T22:15:28.060Z,10.60
2023-01-17T22:17:55.712Z,8.15
2023-01-17T22:20:23.343Z,4.88
2023-01-17T22:22:50.667Z,5.60
2023-01-17T22:25:17.961Z,7.20
2023-01-17T22:27:45.560Z,4.85
2023-01-17T22:30:13.430Z,3.97
2023-01-17T22:32:41.112Z,3.00
2023-01-17T22:35:09.467Z,4.65
2023-01-17T22:40:05.911Z,7.38
2023-01-17T22:42:34.595Z,4.75
2023-01-17T22:45:02.129Z,4.50
2023-01-17T22:47:30.157Z,4.82
2023-01-17T22:49:57.508Z,4.90
2023-01-17T22:52:25.210Z,8.02
2023-01-17T22:54:52.834Z,20.60
2023-01-17T22:57:20.162Z,6.67
2023-01-17T22:59:47.692Z,5.65
2023-01-17T23:02:16.545Z,14.00
2023-01-17T23:04:44.889Z,9.68
2023-01-17T23:07:12.255Z,8.57
2023-01-17T23:09:39.566Z,8.00
2023-01-17T23:12:07.295Z,10.23
2023-01-17T23:14:54.792Z,6.55
2023-01-17T23:17:43.092Z,6.15
2023-01-17T23:20:11.553Z,4.32
2023-01-17T23:25:13.114Z,7.15
2023-01-17T23:28:04.111Z,4.78
2023-01-17T23:30:40.278Z,5.80
2023-01-17T23:33:17.023Z,5.72
2023-01-17T23:35:46.391Z,4.97
2023-01-17T23:38:29.469Z,6.15
2023-01-17T23:41:25.856Z,5.68
2023-01-17T23:43:56.153Z,8.82
2023-01-17T23:46:25.963Z,8.90
2023-01-17T23:48:54.816Z,7.30
2023-01-17T23:51:22.389Z,5.93
2023-01-17T23:53:52.121Z,6.15
2023-01-17T23:56:23.162Z,6.38
2023-01-17T23:58:50.800Z,6.35
